Relevés horaires Chievres (Belgique)


Relevés horaires à Chievres - Mardi 24 Mai 2016
Heure UTC1 Température [°C] Vent [km/h] Hum. [%] Pres.4 [hPa] Visi. [Km] Nébu. [octa] Préc.5 [mm] Cond.
2m. Res. Ros. Dir.2 Vit. Moy. Raf.3
23:00 8.8 8.8 6.5 NNO 1.9 1.9 3.7 85 1017.8(0.0/3h) 19 -- -- --
22:00 9.3 9.3 6.1 NNO 1.9 5.6 7.4 80 1018.1(0.0/3h) 19 -- -- --
21:00 9.7 9.2 6.2 N 5.6 0.0 0.0 79 1018(0.3/3h) 19 -- -- --
20:00 10.3 9.1 5.3 N 9.3 9.3 13.0 71 1017.8(0.1/3h) 19 -- -- --
19:00 11.3 10.3 6.1 N 9.3 13.0 16.7 70 1017.8(-0.1/3h) 19 -- -- --
18:00 12.4 11.3 7.2 N 11.1 0.0 0.0 71 1017.5(-0.6/3h) 18 -- 0/0h
--
17:00 13.3 12.4 6.9 N 11.1 13.0 14.8 65 1017.7(-0.7/3h) 19 -- -- --
16:00 14.2 13.7 7.8 N 9.3 9.3 14.8 65 1017.7(-0.9/3h) 20 -- -- --
15:00 13.9 13.7 7.8 N 7.4 0.0 0.0 67 1018.2(-0.8/3h) 20 -- -- --
14:00 14.2 14 7.6 N 7.4 11.1 16.7 64 1018.5(-0.9/3h) 18 -- -- --
13:00 14.5 14.1 8.3 N 9.3 11.1 16.7 66 1018.6(-1.0/3h) 20 -- -- --
12:00 13.6 13 8.2 N 9.3 0.0 0.0 70 1019(-0.6/3h) 19 -- 0/0h
--
11:00 12.8 12.4 7.1 NNO 7.4 7.4 11.1 68 1019.3(-0.2/3h) 20 -- -- --
10:00 11.7 11.5 7.3 N 5.6 7.4 11.1 74 1019.7(0.1/3h) 19 -- -- --
09:00 10.7 10 7.3 N 7.4 0.0 0.0 79 1019.7(-0.1/3h) 20 -- -- --
08:00 10.6 9.8 7.6 N 7.4 7.4 11.1 82 1019.7(-0.1/3h) 20 -- -- --
07:00 10.5 9.7 7.5 NNO 7.4 7.4 11.1 82 1019.7(-0.2/3h) 20 -- -- --
06:00 10.3 9.5 7.0 NNO 7.4 0.0 0.0 80 1019.8(0.0/3h) 20 -- 0/0h
--
05:00 10.1 9.3 7.3 NNO 7.4 7.4 11.1 83 1019.8(-0.1/3h) 20 -- -- --
04:00 10.1 9.7 7.6 NNO 5.6 7.4 9.3 84 1019.8(0.0/3h) 20 -- -- --
03:00 10.3 9.9 7.6 NNO 5.6 0.0 0.0 83 1019.8(-0.2/3h) 20 -- -- --
02:00 10.3 9.9 8.1 NNO 5.6 7.4 11.1 86 1020.1(-0.1/3h) 16 -- -- --
01:00 10.6 9.8 8.4 NNO 7.4 9.3 11.1 86 1020(0.0/3h) 16 -- -- --
00:00 10.8 9.7 8.5 NNO 9.3 0.0 0.0 86 1020.1(0.4/3h) 19 -- 0/0h
--

1 Coordinated Universal Time. Actuellement il est 13:00 locale et 11:00 UTC.

2 Le vent souffle depuis la direction indiquée vers la direction oposée.

3 Les rafales max. sont disponible 40 min après l'heure du relevé.

4 Pour les stations d'altitude (plus de 600m) le géopotentiel du niveau le plus proche de la pression obligatoire est indiqué.

5 Les stations disposant d'un diffuseur peuvent indiquer "trace". Cela signifie que des précipitations ont touchés le sol mais que la quantité est inférieure à 0.1 mm.

Récapitulatif de la journée
Température [°C] Vent [km/h] Ensoleillement4 [h] Precipitations totale5 [mm] Pression [Hpa]
Min1 Max.2 Moy.3 Max. Min Max.
10.1 14.9 5.6 16.7 0 h 0 min 0 1017.5 1020.1

1 Température minimale relevée entre 18:00 UTC la veille et 18:00 UTC le jour donné.

2 Température maximale relevée entre 06:00 UTC le jour donné et 06:00 UTC le lendemain.

3 Vent moyen de la journée basé sur les relevés horaires.

4 Ensoleillement en heures relevé entre 06:00 UTC la veille et 06:00 UTC le jour donné.

5 Précipitations totales tombées entre 06:00 UTC la jour donné et 06:00 UTC le lendemain.

Graphiques horaires